Time;durP1;ratioP1;P1;durP2;ratioP2;P2;SDS_P1;SDS_P2;PMS_P1;PMS_P2;Temp;Humidity;BMP_temperature;BMP_pressure;BME280_temperature;BME280_humidity;BME280_pressure;Samples;Min_cycle;Max_cycle;Signal;HPM_P1;HPM_P2
2022/01/04 00:00:31;;;;;;;2.85;1.70;;;8.30;99.90;;;;;;6220071;23;20032;-85
2022/01/04 00:03:18;;;;;;;4.55;1.40;;;8.20;99.90;;;;;;6175468;23;20025;-88
2022/01/04 00:06:05;;;;;;;2.30;1.20;;;8.30;99.90;;;;;;6213484;23;20098;-87
2022/01/04 00:08:59;;;;;;;6.63;1.65;;;8.30;99.90;;;;;;6202921;23;20074;-86
2022/01/04 00:14:42;;;;;;;4.03;1.30;;;8.30;99.90;;;;;;6245126;23;20024;-85
2022/01/04 00:17:30;;;;;;;1.88;1.38;;;8.20;99.90;;;;;;6198832;23;20035;-88
2022/01/04 00:20:17;;;;;;;6.15;1.83;;;8.20;99.90;;;;;;6224321;23;20028;-87
2022/01/04 00:23:05;;;;;;;11.55;1.77;;;8.20;99.90;;;;;;6191932;23;20051;-88
2022/01/04 00:25:52;;;;;;;2.92;1.48;;;8.20;99.90;;;;;;6221716;23;20031;-84
2022/01/04 00:28:39;;;;;;;8.32;1.73;;;8.20;99.90;;;;;;6223000;23;20035;-86
2022/01/04 00:31:28;;;;;;;3.65;1.50;;;8.30;99.90;;;;;;6175716;23;20032;-86
2022/01/04 00:34:15;;;;;;;2.35;1.50;;;8.30;99.90;;;;;;6193391;23;20164;-86
2022/01/04 00:37:02;;;;;;;5.43;1.50;;;8.30;99.90;;;;;;6212027;23;20044;-86
2022/01/04 00:39:50;;;;;;;3.58;1.65;;;8.30;99.90;;;;;;6238285;23;20284;-83
2022/01/04 00:42:37;;;;;;;5.32;1.40;;;8.30;99.90;;;;;;6233724;23;20040;-86
2022/01/04 00:45:31;;;;;;;2.33;1.40;;;8.30;99.90;;;;;;6201928;23;20032;-85
2022/01/04 00:51:13;;;;;;;2.35;1.40;;;8.30;99.90;;;;;;6245240;23;20020;-84
2022/01/04 00:54:00;;;;;;;6.35;1.80;;;8.30;99.90;;;;;;6224075;23;20020;-85
2022/01/04 00:56:48;;;;;;;5.15;1.70;;;8.30;99.90;;;;;;6220986;23;20315;-87
2022/01/04 00:59:35;;;;;;;2.67;1.70;;;8.30;99.90;;;;;;6223471;23;20319;-86
2022/01/04 01:02:23;;;;;;;3.60;2.08;;;8.30;99.90;;;;;;6217117;23;20128;-86
2022/01/04 01:05:11;;;;;;;2.50;1.60;;;8.30;99.90;;;;;;6244968;23;20039;-86
2022/01/04 01:08:01;;;;;;;2.33;1.70;;;8.30;99.90;;;;;;6224261;23;20024;-85
2022/01/04 01:10:50;;;;;;;6.05;2.10;;;8.30;99.90;;;;;;6218863;23;20047;-86
2022/01/04 01:13:38;;;;;;;3.17;1.70;;;8.30;99.90;;;;;;6197612;23;20039;-86
2022/01/04 01:16:26;;;;;;;3.22;1.98;;;8.20;99.90;;;;;;6224217;23;20386;-87
2022/01/04 01:19:14;;;;;;;8.98;2.58;;;8.20;99.90;;;;;;6244627;23;20031;-87
2022/01/04 01:22:01;;;;;;;3.53;1.88;;;8.20;99.90;;;;;;6194395;23;20071;-86
2022/01/04 01:24:48;;;;;;;4.80;2.38;;;8.30;99.90;;;;;;6179311;23;20028;-85
2022/01/04 01:27:36;;;;;;;3.78;2.35;;;8.30;99.90;;;;;;6244330;23;20123;-86
2022/01/04 01:30:24;;;;;;;4.55;2.13;;;8.30;99.90;;;;;;6221734;23;20462;-86
2022/01/04 01:33:12;;;;;;;4.82;2.20;;;8.30;99.90;;;;;;6222686;23;20082;-85
2022/01/04 01:36:00;;;;;;;3.65;2.33;;;8.20;99.90;;;;;;6213218;23;20082;-86
2022/01/04 01:38:48;;;;;;;6.35;2.35;;;8.20;99.90;;;;;;6179407;23;20507;-87
2022/01/04 01:41:37;;;;;;;5.43;2.33;;;8.20;99.90;;;;;;6218198;23;20035;-86
2022/01/04 01:44:25;;;;;;;4.65;2.78;;;8.30;99.90;;;;;;6216591;23;20048;-84
2022/01/04 01:47:14;;;;;;;7.25;2.42;;;8.30;99.90;;;;;;6224664;22;20028;-85
2022/01/04 01:50:02;;;;;;;3.20;2.25;;;8.30;99.90;;;;;;6213714;23;20028;-86
2022/01/04 01:52:51;;;;;;;3.88;2.58;;;8.30;99.90;;;;;;6221204;23;20115;-84
2022/01/04 01:55:43;;;;;;;5.15;2.75;;;8.30;99.90;;;;;;6222034;23;20043;-85
2022/01/04 01:58:30;;;;;;;3.58;1.90;;;8.30;99.90;;;;;;6207334;23;20028;-88
2022/01/04 02:01:18;;;;;;;4.82;2.42;;;8.30;99.90;;;;;;6193132;23;20024;-88
2022/01/04 02:04:06;;;;;;;4.25;2.40;;;8.30;99.90;;;;;;6191940;23;20305;-87
2022/01/04 02:06:53;;;;;;;5.05;2.60;;;8.30;99.90;;;;;;6223339;23;20031;-87
2022/01/04 02:09:51;;;;;;;3.50;2.58;;;8.40;99.90;;;;;;6245025;23;20031;-85
2022/01/04 02:12:54;;;;;;;3.38;2.33;;;8.40;99.90;;;;;;6223626;23;20080;-88
2022/01/04 02:15:44;;;;;;;5.28;3.03;;;8.50;99.90;;;;;;6224025;23;20095;-87
2022/01/04 02:18:31;;;;;;;3.28;2.00;;;8.50;99.90;;;;;;6206703;23;20028;-86
2022/01/04 02:21:18;;;;;;;3.60;2.10;;;8.50;99.90;;;;;;6195769;23;20484;-87
2022/01/04 02:24:06;;;;;;;4.15;2.38;;;8.60;99.90;;;;;;6213835;23;20039;-86
2022/01/04 02:26:53;;;;;;;4.43;2.00;;;8.70;99.90;;;;;;6224542;22;20054;-86
2022/01/04 02:29:41;;;;;;;4.88;2.75;;;8.70;99.90;;;;;;6198502;23;20090;-85
2022/01/04 02:32:28;;;;;;;3.85;2.10;;;8.80;99.90;;;;;;6220580;23;20020;-86
2022/01/04 02:35:23;;;;;;;4.63;2.00;;;8.90;99.90;;;;;;6195372;23;20059;-88
2022/01/04 02:38:10;;;;;;;2.67;1.67;;;8.90;99.90;;;;;;6223901;23;20024;-87
2022/01/04 02:41:01;;;;;;;2.22;1.90;;;9.00;99.90;;;;;;6192603;23;20027;-84
2022/01/04 02:43:51;;;;;;;2.78;1.58;;;9.10;99.90;;;;;;6223635;23;20031;-85
2022/01/04 02:46:38;;;;;;;3.53;1.85;;;9.10;99.90;;;;;;6218992;23;20435;-86
2022/01/04 02:49:28;;;;;;;3.60;1.88;;;9.10;99.90;;;;;;6195399;23;20027;-85
2022/01/04 02:52:18;;;;;;;4.45;1.83;;;9.10;99.90;;;;;;6219021;23;20020;-86
2022/01/04 02:55:08;;;;;;;4.38;1.67;;;9.10;99.90;;;;;;6192914;23;20020;-85
2022/01/04 02:57:56;;;;;;;3.33;1.90;;;9.00;99.90;;;;;;6235792;23;20020;-84
2022/01/04 03:00:48;;;;;;;7.05;1.77;;;9.10;99.90;;;;;;6226067;23;20016;-84
2022/01/04 03:03:36;;;;;;;5.13;1.95;;;9.10;99.90;;;;;;6226718;22;20047;-84
2022/01/04 03:06:26;;;;;;;2.65;1.98;;;9.20;99.90;;;;;;6196369;23;20086;-83
2022/01/04 03:09:15;;;;;;;4.38;2.00;;;9.20;99.90;;;;;;6215758;23;20024;-85
2022/01/04 03:12:03;;;;;;;3.58;1.70;;;9.20;99.90;;;;;;6226481;22;20093;-83
2022/01/04 03:14:51;;;;;;;3.13;1.73;;;9.20;99.90;;;;;;6247157;23;20062;-85
2022/01/04 03:17:38;;;;;;;3.90;1.80;;;9.20;99.90;;;;;;6201622;23;20024;-83
2022/01/04 03:20:25;;;;;;;3.45;1.92;;;9.20;99.90;;;;;;6198380;23;20020;-85
2022/01/04 03:23:12;;;;;;;2.80;1.60;;;9.30;99.90;;;;;;6173136;23;20032;-83
2022/01/04 03:26:04;;;;;;;2.00;1.77;;;9.20;99.90;;;;;;6244450;23;20085;-85
2022/01/04 03:28:52;;;;;;;2.67;1.73;;;9.20;99.90;;;;;;6223019;23;20451;-85
2022/01/04 03:31:42;;;;;;;3.63;1.88;;;9.20;99.90;;;;;;6222920;23;20032;-83
2022/01/04 03:34:29;;;;;;;3.10;1.70;;;9.10;99.90;;;;;;6223434;23;20415;-83
2022/01/04 03:37:16;;;;;;;2.00;1.42;;;9.10;99.90;;;;;;6224429;23;20020;-83
2022/01/04 03:40:10;;;;;;;3.72;1.65;;;9.10;99.90;;;;;;6248826;23;20028;-86
2022/01/04 03:43:00;;;;;;;3.38;1.85;;;9.10;99.90;;;;;;6227918;23;20033;-88
2022/01/04 03:45:51;;;;;;;4.75;1.80;;;9.00;99.90;;;;;;6200974;23;20027;-87
2022/01/04 03:48:39;;;;;;;3.55;1.67;;;9.00;99.90;;;;;;6246670;23;20327;-85
2022/01/04 03:51:31;;;;;;;1.90;1.50;;;8.90;99.90;;;;;;6199679;23;20032;-85
2022/01/04 03:54:23;;;;;;;3.75;1.60;;;8.90;99.90;;;;;;6199697;23;20107;-84
2022/01/04 03:57:10;;;;;;;2.10;1.60;;;8.90;99.90;;;;;;6249026;23;20434;-87
2022/01/04 04:00:00;;;;;;;4.07;1.65;;;8.90;99.90;;;;;;6240137;23;20032;-87
2022/01/04 04:02:49;;;;;;;3.28;1.58;;;9.00;99.90;;;;;;6205266;23;20039;-84
2022/01/04 04:05:36;;;;;;;2.10;1.63;;;9.00;99.90;;;;;;6249133;23;20102;-84
2022/01/04 04:08:26;;;;;;;2.53;1.17;;;9.10;99.90;;;;;;6202733;23;20028;-87
2022/01/04 04:11:13;;;;;;;2.13;1.60;;;9.10;99.90;;;;;;6215048;23;20029;-87
2022/01/04 04:14:01;;;;;;;3.90;1.45;;;9.10;99.90;;;;;;6214592;23;20052;-86
2022/01/04 04:16:48;;;;;;;2.17;1.52;;;9.10;99.90;;;;;;6236612;23;20027;-87
2022/01/04 04:19:36;;;;;;;2.30;1.38;;;9.10;99.90;;;;;;6247786;22;20020;-86
2022/01/04 04:22:26;;;;;;;1.40;1.25;;;9.10;99.90;;;;;;6246347;23;20443;-86
2022/01/04 04:25:14;;;;;;;2.28;1.45;;;9.10;99.90;;;;;;6225026;23;20027;-88
2022/01/04 04:28:01;;;;;;;2.15;1.40;;;9.10;99.90;;;;;;6224751;23;20028;-87
2022/01/04 04:30:51;;;;;;;1.77;1.40;;;9.20;99.90;;;;;;6222624;23;20435;-85
2022/01/04 04:33:38;;;;;;;2.10;1.45;;;9.10;99.90;;;;;;6223124;23;20032;-90
2022/01/04 04:36:29;;;;;;;3.22;1.30;;;9.10;99.90;;;;;;6216390;23;20420;-87
2022/01/04 04:39:17;;;;;;;1.90;1.30;;;9.10;99.90;;;;;;6195909;23;20094;-89
2022/01/04 04:42:05;;;;;;;2.03;1.55;;;9.10;99.90;;;;;;6193046;23;20028;-83
2022/01/04 04:44:52;;;;;;;2.25;1.90;;;9.10;99.90;;;;;;6200443;23;20066;-84
2022/01/04 04:47:42;;;;;;;4.00;1.90;;;9.10;99.90;;;;;;6200406;23;20418;-85
2022/01/04 04:50:31;;;;;;;2.13;1.50;;;9.10;99.90;;;;;;6225061;23;20423;-86
2022/01/04 04:53:18;;;;;;;3.67;1.50;;;9.00;99.90;;;;;;6194547;23;20056;-87
2022/01/04 04:56:06;;;;;;;2.15;1.42;;;9.00;99.90;;;;;;6244108;23;20048;-86
2022/01/04 04:59:00;;;;;;;2.03;1.50;;;9.00;99.90;;;;;;6204123;23;20036;-87
2022/01/04 05:01:47;;;;;;;1.70;1.58;;;9.00;99.90;;;;;;6224571;23;20067;-88
2022/01/04 05:04:39;;;;;;;4.65;1.60;;;9.00;99.90;;;;;;6197547;23;20034;-85
2022/01/04 05:07:32;;;;;;;3.35;1.83;;;9.00;99.90;;;;;;6223007;23;20074;-85
2022/01/04 05:10:24;;;;;;;3.35;1.50;;;9.00;99.90;;;;;;6250100;22;20028;-86
2022/01/04 05:13:11;;;;;;;2.65;1.40;;;9.00;99.90;;;;;;6261879;22;20026;-85
2022/01/04 05:15:59;;;;;;;3.53;1.50;;;9.00;99.90;;;;;;6207908;23;20024;-85
2022/01/04 05:18:46;;;;;;;3.28;1.67;;;9.00;99.90;;;;;;6204316;23;20043;-86
2022/01/04 05:21:38;;;;;;;2.70;1.60;;;9.10;99.90;;;;;;6232501;23;20035;-85
2022/01/04 05:24:26;;;;;;;3.13;1.55;;;9.10;99.90;;;;;;6261962;23;20028;-87
2022/01/04 05:27:14;;;;;;;1.52;1.40;;;9.10;99.90;;;;;;6233505;23;20051;-87
2022/01/04 05:30:01;;;;;;;2.13;1.70;;;9.10;99.90;;;;;;6214380;23;20051;-89
2022/01/04 05:32:53;;;;;;;1.40;1.30;;;9.10;99.90;;;;;;6216121;23;20047;-86
2022/01/04 06:05:29;;;;;;;3.58;1.73;;;8.90;99.90;;;;;;6177287;23;20072;-85
2022/01/04 06:08:17;;;;;;;2.28;1.40;;;9.00;99.90;;;;;;6202769;23;20028;-87
2022/01/04 06:11:08;;;;;;;1.95;1.40;;;9.00;99.90;;;;;;6222737;23;20036;-85
2022/01/04 06:17:04;;;;;;;3.67;1.90;;;8.90;99.90;;;;;;6243586;23;20327;-83
2022/01/04 06:19:53;;;;;;;1.70;1.60;;;8.90;99.90;;;;;;6220232;23;20020;-80
2022/01/04 06:22:42;;;;;;;3.08;1.60;;;8.90;99.90;;;;;;6220344;23;20024;-84
2022/01/04 06:25:32;;;;;;;3.90;1.48;;;8.90;99.90;;;;;;6224172;22;20458;-85
2022/01/04 06:28:20;;;;;;;1.70;1.58;;;8.90;99.90;;;;;;6220761;22;20411;-84
2022/01/04 06:31:09;;;;;;;2.20;1.70;;;8.90;99.90;;;;;;6219813;23;20028;-84
2022/01/04 06:33:57;;;;;;;2.45;1.52;;;8.90;99.90;;;;;;6201174;23;20035;-83
2022/01/04 06:36:45;;;;;;;2.42;1.75;;;8.80;99.90;;;;;;6224288;22;20119;-87
2022/01/04 06:39:36;;;;;;;4.00;1.95;;;8.90;99.90;;;;;;6224477;22;20028;-87
2022/01/04 06:42:24;;;;;;;4.53;2.28;;;8.80;99.90;;;;;;6223688;23;20112;-86
2022/01/04 06:45:14;;;;;;;3.90;1.90;;;8.80;99.90;;;;;;6204458;23;20465;-89
2022/01/04 06:48:04;;;;;;;1.70;1.60;;;8.80;99.90;;;;;;6184166;23;20094;-88
2022/01/04 06:50:51;;;;;;;4.50;2.08;;;8.80;99.90;;;;;;6201814;23;20038;-85
2022/01/04 06:53:39;;;;;;;4.43;1.70;;;8.90;99.90;;;;;;6214354;23;20024;-90
2022/01/04 06:56:30;;;;;;;2.95;1.60;;;8.90;99.90;;;;;;6174450;23;20042;-90
2022/01/04 06:59:18;;;;;;;6.90;2.30;;;8.90;99.90;;;;;;6216441;23;20021;-89
2022/01/04 07:02:14;;;;;;;3.53;1.95;;;8.90;99.90;;;;;;6194846;23;20032;-90
2022/01/04 07:05:03;;;;;;;3.22;2.92;;;8.90;99.90;;;;;;6179216;23;20025;-90
2022/01/04 07:07:51;;;;;;;1.80;1.70;;;8.90;99.90;;;;;;6191056;23;20028;-91
2022/01/04 07:10:43;;;;;;;3.05;1.90;;;9.00;99.90;;;;;;6178354;23;20416;-86
2022/01/04 07:13:34;;;;;;;2.20;1.67;;;9.00;99.90;;;;;;6158873;23;20088;-90
2022/01/04 07:16:31;;;;;;;3.05;1.88;;;9.10;99.90;;;;;;6180287;23;20036;-91
2022/01/04 07:19:27;;;;;;;3.28;1.30;;;9.10;99.90;;;;;;6223250;23;20039;-90
2022/01/04 07:22:15;;;;;;;1.85;1.50;;;9.20;99.90;;;;;;6204365;23;20063;-89
2022/01/04 07:25:14;;;;;;;2.30;1.17;;;9.30;99.90;;;;;;6202458;23;20025;-88
2022/01/04 07:28:20;;;;;;;1.60;1.50;;;9.30;99.90;;;;;;6204710;23;20048;-89
2022/01/04 07:31:45;;;;;;;2.03;1.65;;;9.50;99.90;;;;;;6149166;23;20022;-88
2022/01/04 07:34:35;;;;;;;4.57;1.45;;;9.60;99.90;;;;;;6167037;23;20044;-88
2022/01/04 07:37:28;;;;;;;2.47;1.77;;;9.70;99.90;;;;;;6125276;23;20373;-88
2022/01/04 07:40:48;;;;;;;2.97;1.65;;;9.80;99.90;;;;;;6167716;23;20029;-88
2022/01/04 07:43:57;;;;;;;3.50;1.70;;;9.90;99.90;;;;;;6152193;23;20006;-87
2022/01/04 07:46:45;;;;;;;4.07;1.60;;;9.80;99.90;;;;;;6128473;23;20081;-87
2022/01/04 07:49:45;;;;;;;1.38;1.20;;;9.90;99.90;;;;;;6171774;23;20095;-86
2022/01/04 07:52:34;;;;;;;2.75;1.67;;;10.10;99.90;;;;;;6213432;23;20092;-88
2022/01/04 07:55:26;;;;;;;1.90;1.30;;;10.20;99.90;;;;;;6233987;23;20032;-86
2022/01/04 07:58:29;;;;;;;;;;;;;;;;;;;;;
2022/01/04 08:01:38;;;;;;;2.03;1.40;;;10.10;99.90;;;;;;6249273;23;20028;-87
2022/01/04 08:04:40;;;;;;;3.20;1.40;;;10.20;99.90;;;;;;6228682;23;20095;-86
2022/01/04 08:07:44;;;;;;;1.48;1.20;;;10.20;99.90;;;;;;6216860;23;20435;-87
2022/01/04 08:10:33;;;;;;;2.15;1.40;;;10.30;99.90;;;;;;6247169;22;20020;-84
2022/01/04 08:13:21;;;;;;;2.10;1.35;;;10.30;99.90;;;;;;6184829;23;20024;-86
2022/01/04 08:16:08;;;;;;;2.95;1.40;;;10.30;99.90;;;;;;6205167;23;20592;-87
2022/01/04 08:18:56;;;;;;;1.23;1.05;;;10.40;99.90;;;;;;6201799;23;20059;-84
2022/01/04 08:21:53;;;;;;;2.25;1.33;;;10.40;99.90;;;;;;6207861;23;20024;-87
2022/01/04 08:24:45;;;;;;;2.15;1.30;;;10.40;99.90;;;;;;6227373;23;20067;-88
2022/01/04 08:27:34;;;;;;;;;;;10.40;99.90;;;;;;6224582;23;20063;-84
2022/01/04 08:30:22;;;;;;;1.95;1.20;;;10.40;99.90;;;;;;6223526;23;20299;-86
2022/01/04 08:33:10;;;;;;;2.45;1.30;;;10.40;99.90;;;;;;6201777;23;20384;-89
2022/01/04 08:36:01;;;;;;;2.83;0.93;;;10.40;99.90;;;;;;6247426;22;20322;-85
2022/01/04 08:38:51;;;;;;;;;;;10.60;99.90;;;;;;6203737;23;20419;-85
2022/01/04 08:41:45;;;;;;;2.22;1.48;;;10.60;99.90;;;;;;6224876;22;19946;-86
2022/01/04 08:44:37;;;;;;;2.47;1.30;;;10.70;99.90;;;;;;6222039;23;20332;-86
2022/01/04 08:47:26;;;;;;;1.33;1.20;;;10.70;99.90;;;;;;6224674;23;20024;-87
2022/01/04 08:50:17;;;;;;;4.22;1.30;;;10.80;99.90;;;;;;6222778;23;20016;-87
2022/01/04 08:53:16;;;;;;;1.77;1.13;;;10.80;99.90;;;;;;6225768;23;20039;-87
2022/01/04 08:56:14;;;;;;;1.65;0.90;;;10.90;99.90;;;;;;6223112;23;20031;-87
2022/01/04 08:59:05;;;;;;;1.67;1.42;;;10.90;99.90;;;;;;6221549;23;20400;-87
2022/01/04 09:01:53;;;;;;;1.65;1.00;;;11.00;99.90;;;;;;6222252;23;20181;-88
2022/01/04 09:04:44;;;;;;;2.30;0.93;;;11.00;99.90;;;;;;6221155;23;20038;-87
2022/01/04 09:07:34;;;;;;;1.55;1.00;;;11.00;99.90;;;;;;6195861;23;20028;-85
2022/01/04 09:10:25;;;;;;;1.20;1.08;;;11.10;99.90;;;;;;6248322;23;20103;-86
2022/01/04 09:13:17;;;;;;;1.25;1.15;;;11.10;99.90;;;;;;6221294;23;20435;-84
2022/01/04 09:18:53;;;;;;;1.80;1.02;;;11.00;99.90;;;;;;6244726;23;20039;-84
2022/01/04 09:21:51;;;;;;;5.47;1.17;;;11.00;99.90;;;;;;6242690;23;20113;-84
2022/01/04 09:24:41;;;;;;;3.85;1.10;;;10.90;99.90;;;;;;6202494;23;20043;-85
2022/01/04 09:27:29;;;;;;;2.30;1.08;;;10.80;99.90;;;;;;6221883;23;20019;-82
2022/01/04 09:30:23;;;;;;;3.35;1.20;;;10.80;99.90;;;;;;6204169;23;20090;-86
2022/01/04 09:33:21;;;;;;;1.60;1.10;;;10.70;99.90;;;;;;6206301;23;20032;-82
2022/01/04 09:36:22;;;;;;;1.10;1.00;;;10.70;99.90;;;;;;6243019;23;20098;-84
2022/01/04 09:39:42;;;;;;;2.45;1.30;;;10.60;99.90;;;;;;6220558;23;20028;-85
2022/01/04 09:42:34;;;;;;;3.88;1.38;;;10.60;99.90;;;;;;6220315;23;20047;-84
2022/01/04 09:45:43;;;;;;;2.58;1.38;;;10.50;99.90;;;;;;6219455;23;20119;-86
2022/01/04 09:48:51;;;;;;;1.42;1.25;;;10.50;99.90;;;;;;6243126;23;20031;-87
2022/01/04 09:51:49;;;;;;;2.08;1.30;;;10.50;99.90;;;;;;6202802;23;20024;-84
2022/01/04 09:54:56;;;;;;;2.40;1.55;;;10.50;99.90;;;;;;6223856;23;20024;-84
2022/01/04 09:57:46;;;;;;;4.07;1.92;;;10.40;99.90;;;;;;6201278;23;20023;-82
2022/01/04 10:00:36;;;;;;;2.95;1.70;;;10.50;99.90;;;;;;6222907;23;20046;-83
2022/01/04 10:03:41;;;;;;;2.38;1.48;;;10.40;99.90;;;;;;6223464;23;20023;-84
2022/01/04 10:06:34;;;;;;;3.05;1.67;;;10.40;99.90;;;;;;6221447;23;20024;-86
2022/01/04 10:09:44;;;;;;;3.75;1.63;;;10.40;99.90;;;;;;6223964;23;20024;-86
2022/01/04 10:13:00;;;;;;;;;;;;;;;;;;;;;
2022/01/04 10:16:24;;;;;;;3.53;1.77;;;10.30;99.90;;;;;;6243239;23;20026;-83
2022/01/04 10:19:34;;;;;;;4.07;1.88;;;10.40;99.90;;;;;;6245723;23;20039;-87
2022/01/04 10:22:36;;;;;;;2.42;1.55;;;10.40;99.90;;;;;;6224238;23;20024;-84
2022/01/04 10:25:47;;;;;;;;;;;;;;;;;;;;;
2022/01/04 10:28:43;;;;;;;3.03;1.50;;;10.50;99.90;;;;;;6242106;23;20113;-84
2022/01/04 10:31:46;;;;;;;4.05;1.80;;;10.50;99.90;;;;;;6222532;23;20024;-83
2022/01/04 10:34:51;;;;;;;1.60;1.27;;;10.60;99.90;;;;;;6222549;23;20453;-84
2022/01/04 10:37:44;;;;;;;2.58;1.60;;;10.70;99.90;;;;;;6219456;23;20129;-84
2022/01/04 10:40:34;;;;;;;2.40;1.40;;;10.70;99.90;;;;;;6222250;23;20035;-83
2022/01/04 10:43:35;;;;;;;3.30;1.67;;;10.70;99.90;;;;;;6201895;23;20069;-83
2022/01/04 10:46:53;;;;;;;6.22;1.75;;;10.80;99.90;;;;;;6166802;23;20060;-82
2022/01/04 10:49:43;;;;;;;3.22;2.03;;;10.80;99.90;;;;;;6162660;23;20301;-86
2022/01/04 10:52:36;;;;;;;2.88;1.75;;;10.90;99.90;;;;;;6161451;23;20221;-86
2022/01/04 10:55:35;;;;;;;3.63;1.48;;;10.90;99.90;;;;;;6157635;23;20036;-87
2022/01/04 10:58:39;;;;;;;3.47;1.63;;;10.80;99.90;;;;;;6177669;23;20064;-84
2022/01/04 11:01:50;;;;;;;4.93;1.73;;;10.70;99.90;;;;;;6161368;23;20122;-84
2022/01/04 11:04:39;;;;;;;1.77;1.40;;;10.60;99.90;;;;;;6161501;23;20313;-84
2022/01/04 11:07:27;;;;;;;3.75;1.63;;;10.70;99.90;;;;;;6180263;23;20059;-82
2022/01/04 11:10:36;;;;;;;5.22;1.80;;;10.70;99.90;;;;;;6163415;23;20157;-83
2022/01/04 11:17:09;;;;;;;4.40;1.95;;;10.80;99.90;;;;;;6155888;23;20100;-85
2022/01/04 11:20:21;;;;;;;4.32;1.58;;;10.70;99.90;;;;;;6182901;23;20415;-86
2022/01/04 11:23:31;;;;;;;3.05;1.67;;;10.70;99.90;;;;;;6049537;23;20198;-84
2022/01/04 11:26:21;;;;;;;2.35;1.90;;;10.70;99.90;;;;;;6048074;23;20128;-86
2022/01/04 11:29:09;;;;;;;4.53;2.00;;;10.60;99.90;;;;;;6046365;23;20392;-84
2022/01/04 11:32:08;;;;;;;4.25;2.03;;;10.60;99.90;;;;;;6045635;23;20347;-84
2022/01/04 11:36:00;;;;;;;;;;;;;;;;;;;;;
2022/01/04 11:40:10;;;;;;;;;;;;;;;;;;;;;
2022/01/04 11:43:04;;;;;;;4.53;2.13;;;10.50;99.90;;;;;;6067756;23;20075;-82
2022/01/04 11:45:57;;;;;;;2.92;2.00;;;10.30;99.90;;;;;;6046697;23;20027;-83
2022/01/04 11:48:56;;;;;;;4.38;2.20;;;10.40;99.90;;;;;;6045927;23;20095;-84
2022/01/04 11:51:46;;;;;;;5.10;2.38;;;10.30;99.90;;;;;;6064787;23;20022;-85
2022/01/04 11:54:37;;;;;;;5.10;2.50;;;10.20;99.90;;;;;;6204890;23;20273;-85
2022/01/04 11:57:54;;;;;;;4.15;2.20;;;10.30;99.90;;;;;;6152593;23;20048;-86
2022/01/04 12:01:06;;;;;;;5.75;2.38;;;10.20;99.90;;;;;;6063897;23;20026;-84
2022/01/04 12:04:32;;;;;;;4.97;2.10;;;10.30;99.90;;;;;;6027665;23;20030;-81
2022/01/04 12:07:49;;;;;;;6.53;2.65;;;10.20;99.90;;;;;;6049965;23;20075;-85
2022/01/04 12:10:50;;;;;;;4.32;2.30;;;10.20;99.90;;;;;;6065252;23;20054;-84
2022/01/04 12:14:04;;;;;;;4.43;2.72;;;10.20;99.90;;;;;;6065918;23;20048;-83
2022/01/04 12:17:42;;;;;;;;;;;;;;;;;;;;;
2022/01/04 12:20:43;;;;;;;6.90;2.20;;;10.10;99.90;;;;;;6248075;22;20020;-82
2022/01/04 12:23:35;;;;;;;5.65;2.42;;;10.20;99.90;;;;;;6223243;23;20400;-86
2022/01/04 12:30:25;;;;;;;6.78;2.13;;;10.20;99.90;;;;;;6243326;23;20027;-84
2022/01/04 12:33:40;;;;;;;7.20;2.42;;;10.10;99.90;;;;;;6223775;23;20138;-84
2022/01/04 12:36:55;;;;;;;7.13;2.22;;;10.10;99.90;;;;;;6203486;23;20036;-84
2022/01/04 12:39:55;;;;;;;;;;;;;;;;;;;;;
2022/01/04 12:43:16;;;;;;;6.10;2.50;;;10.10;99.90;;;;;;6237637;23;20024;-86
2022/01/04 12:46:07;;;;;;;5.60;2.90;;;10.10;99.90;;;;;;6226395;22;20449;-85
2022/01/04 12:49:01;;;;;;;4.68;2.95;;;10.10;99.90;;;;;;6244728;23;20119;-83
2022/01/04 12:52:10;;;;;;;8.90;3.05;;;10.10;99.90;;;;;;6225173;23;20149;-83
2022/01/04 12:55:22;;;;;;;6.15;2.75;;;10.00;99.90;;;;;;6209688;23;20143;-83
2022/01/04 12:58:15;;;;;;;5.05;2.53;;;10.00;99.90;;;;;;6245004;23;20024;-86
2022/01/04 13:01:17;;;;;;;3.25;2.40;;;10.00;99.90;;;;;;6207343;23;20359;-87
2022/01/04 13:04:35;;;;;;;2.72;2.30;;;10.10;99.90;;;;;;6222423;23;20024;-85
2022/01/04 13:11:14;;;;;;;5.13;2.42;;;10.00;99.90;;;;;;6231824;23;20311;-86
2022/01/04 13:14:17;;;;;;;4.28;2.72;;;10.00;99.90;;;;;;6225302;23;20327;-86
2022/01/04 13:17:26;;;;;;;8.73;3.28;;;10.00;99.90;;;;;;6218269;23;20804;-86
2022/01/04 13:20:38;;;;;;;5.47;2.58;;;10.00;99.90;;;;;;6209823;23;20020;-82
2022/01/04 13:23:29;;;;;;;3.53;2.40;;;10.00;99.90;;;;;;6206838;23;20024;-83
2022/01/04 13:26:28;;;;;;;8.95;2.80;;;10.00;99.90;;;;;;6225975;23;20361;-86
2022/01/04 13:29:23;;;;;;;3.35;2.60;;;10.00;99.90;;;;;;6200605;23;20020;-85
2022/01/04 13:32:13;;;;;;;5.72;2.50;;;9.90;99.90;;;;;;6221427;23;20038;-86
2022/01/04 13:35:16;;;;;;;4.70;2.58;;;10.00;99.90;;;;;;6241996;23;20028;-85
2022/01/04 13:38:23;;;;;;;3.40;2.40;;;9.90;99.90;;;;;;6241615;23;20087;-85
2022/01/04 13:41:13;;;;;;;5.80;3.03;;;9.90;99.90;;;;;;6220591;23;20030;-85
2022/01/04 13:44:24;;;;;;;6.47;2.67;;;10.00;99.90;;;;;;6228566;23;20027;-86
2022/01/04 13:47:26;;;;;;;4.85;2.30;;;9.90;99.90;;;;;;6206362;22;20123;-86
2022/01/04 13:50:18;;;;;;;4.65;2.75;;;10.00;99.90;;;;;;6242767;23;20035;-85
2022/01/04 13:53:12;;;;;;;7.78;2.47;;;10.00;99.90;;;;;;6242920;23;20023;-84
2022/01/04 13:56:10;;;;;;;6.43;3.28;;;9.90;99.90;;;;;;6245218;23;20031;-83
2022/01/04 13:58:58;;;;;;;5.07;3.17;;;9.90;99.90;;;;;;6223537;23;20032;-85
2022/01/04 14:01:48;;;;;;;4.45;2.88;;;9.90;99.90;;;;;;6223696;23;20362;-84
2022/01/04 14:04:39;;;;;;;4.80;2.92;;;9.90;99.90;;;;;;6224151;23;20494;-84
2022/01/04 14:07:26;;;;;;;4.35;2.50;;;9.90;99.90;;;;;;6202390;23;20020;-83
2022/01/04 14:10:47;;;;;;;4.00;2.75;;;9.90;99.90;;;;;;6222830;23;20047;-83
2022/01/04 14:13:48;;;;;;;9.75;4.57;;;9.80;99.90;;;;;;6231669;23;20301;-85
2022/01/04 14:16:49;;;;;;;5.65;3.22;;;9.80;99.90;;;;;;6223855;23;20024;-79
2022/01/04 14:19:47;;;;;;;6.75;3.40;;;9.80;99.90;;;;;;6223670;23;20019;-84
2022/01/04 14:22:40;;;;;;;5.57;3.10;;;9.90;99.90;;;;;;6224006;23;20051;-84
2022/01/04 14:25:30;;;;;;;6.60;2.85;;;9.90;99.90;;;;;;6223409;23;20035;-83
2022/01/04 14:28:27;;;;;;;3.95;2.28;;;9.90;99.90;;;;;;6224712;23;20036;-85
2022/01/04 14:31:18;;;;;;;9.65;3.08;;;9.80;99.90;;;;;;6221818;23;20031;-86
2022/01/04 14:34:06;;;;;;;6.22;3.22;;;9.80;99.90;;;;;;6243262;23;20384;-82
2022/01/04 14:37:14;;;;;;;7.70;3.28;;;9.80;99.90;;;;;;6222168;23;20363;-85
2022/01/04 14:40:01;;;;;;;2.17;1.30;;;9.80;99.90;;;;;;6223567;23;20061;-87
2022/01/04 14:42:52;;;;;;;1.00;0.90;;;9.50;99.90;;;;;;6203404;23;20038;-85
2022/01/04 14:45:46;;;;;;;4.22;0.90;;;8.80;99.90;;;;;;6224581;23;20021;-86
2022/01/04 14:48:36;;;;;;;1.90;1.17;;;8.10;99.90;;;;;;6223856;23;20102;-85
2022/01/04 14:51:23;;;;;;;0.80;0.80;;;7.60;99.90;;;;;;6225788;23;20581;-85
2022/01/04 14:54:11;;;;;;;2.08;0.82;;;7.30;99.90;;;;;;6216836;23;20021;-88
2022/01/04 14:56:59;;;;;;;1.55;1.00;;;7.00;99.90;;;;;;6245733;23;20335;-87
2022/01/04 14:59:46;;;;;;;1.65;1.30;;;6.80;99.90;;;;;;6224735;23;20020;-85
2022/01/04 15:02:34;;;;;;;1.35;1.25;;;6.70;99.90;;;;;;6227157;23;20074;-85
2022/01/04 15:05:32;;;;;;;1.00;0.90;;;6.60;99.90;;;;;;6229178;23;20028;-87
2022/01/04 15:08:20;;;;;;;0.70;0.70;;;6.40;99.90;;;;;;6224376;23;20570;-84
2022/01/04 15:11:07;;;;;;;1.48;0.95;;;6.30;99.90;;;;;;6225719;23;20020;-87
2022/01/04 15:13:57;;;;;;;0.75;0.75;;;6.20;99.90;;;;;;6227837;23;20030;-86
2022/01/04 15:16:49;;;;;;;2.33;1.10;;;6.10;99.90;;;;;;6190583;23;20094;-87
2022/01/04 15:19:42;;;;;;;1.15;1.05;;;6.00;99.90;;;;;;6225329;23;20056;-86
2022/01/04 15:22:36;;;;;;;2.17;1.15;;;5.90;99.90;;;;;;6227050;23;20028;-86
2022/01/04 15:25:25;;;;;;;0.70;0.70;;;5.80;99.90;;;;;;6228296;23;20344;-85
2022/01/04 15:28:12;;;;;;;1.27;1.17;;;5.70;99.90;;;;;;6249939;22;20027;-86
2022/01/04 15:30:59;;;;;;;1.50;1.40;;;5.60;99.90;;;;;;6212637;23;20024;-87
2022/01/04 15:33:47;;;;;;;1.50;1.40;;;5.60;99.90;;;;;;6215295;23;20118;-87
2022/01/04 15:36:40;;;;;;;1.50;1.40;;;5.50;99.90;;;;;;6225651;23;20028;-86
2022/01/04 15:39:28;;;;;;;1.75;1.65;;;5.50;99.90;;;;;;6225883;23;20106;-88
2022/01/04 15:42:16;;;;;;;2.60;2.40;;;5.30;99.90;;;;;;6225600;23;20039;-88
2022/01/04 15:45:05;;;;;;;2.85;1.90;;;5.30;99.90;;;;;;6224996;23;20020;-87
2022/01/04 15:47:52;;;;;;;3.10;2.80;;;5.30;99.90;;;;;;6204379;23;20323;-85
2022/01/04 15:50:39;;;;;;;2.95;2.65;;;5.20;99.90;;;;;;6223244;23;20030;-85
2022/01/04 15:53:30;;;;;;;3.58;2.45;;;5.20;99.90;;;;;;6221981;23;20300;-84
2022/01/04 15:56:22;;;;;;;3.85;3.42;;;5.10;99.90;;;;;;6224845;23;20024;-82
2022/01/04 15:59:10;;;;;;;5.80;3.95;;;5.10;99.90;;;;;;6245570;23;20024;-85
2022/01/04 16:01:58;;;;;;;3.25;3.00;;;5.10;99.90;;;;;;6223436;23;20024;-88
2022/01/04 16:04:48;;;;;;;4.00;3.10;;;5.10;99.90;;;;;;6184133;23;20089;-84
2022/01/04 16:07:35;;;;;;;5.20;3.47;;;5.00;99.90;;;;;;6180687;23;20463;-87
2022/01/04 16:10:26;;;;;;;4.03;3.38;;;4.90;99.90;;;;;;6195160;23;20388;-86
2022/01/04 16:13:14;;;;;;;3.50;3.20;;;4.80;99.90;;;;;;6195550;23;20024;-85
2022/01/04 16:21:49;;;;;;;8.35;4.97;;;4.70;99.90;;;;;;6247252;22;20089;-85